sensor_id;sensor_type;location;lat;lon;timestamp;temperature;humidity
63260;DHT22;49390;51.380;0.098;2023-08-17T00:00:40;18.00;99.90
63260;DHT22;49390;51.380;0.098;2023-08-17T00:03:32;18.00;99.90
63260;DHT22;49390;51.380;0.098;2023-08-17T00:06:00;18.00;99.90
63260;DHT22;49390;51.380;0.098;2023-08-17T00:08:28;18.00;99.90
63260;DHT22;49390;51.380;0.098;2023-08-17T00:10:56;18.00;99.90
63260;DHT22;49390;51.380;0.098;2023-08-17T00:13:27;18.10;99.90
63260;DHT22;49390;51.380;0.098;2023-08-17T00:15:54;18.10;99.90
63260;DHT22;49390;51.380;0.098;2023-08-17T00:18:26;18.10;99.90
63260;DHT22;49390;51.380;0.098;2023-08-17T00:20:54;18.00;99.90
63260;DHT22;49390;51.380;0.098;2023-08-17T00:23:22;18.00;99.90
63260;DHT22;49390;51.380;0.098;2023-08-17T00:25:50;18.00;99.90
63260;DHT22;49390;51.380;0.098;2023-08-17T00:28:24;18.00;99.90
63260;DHT22;49390;51.380;0.098;2023-08-17T00:30:52;18.00;99.90
63260;DHT22;49390;51.380;0.098;2023-08-17T00:33:22;18.00;99.90
63260;DHT22;49390;51.380;0.098;2023-08-17T00:35:50;18.00;99.90
63260;DHT22;49390;51.380;0.098;2023-08-17T00:38:18;18.10;99.90
63260;DHT22;49390;51.380;0.098;2023-08-17T00:40:47;18.10;99.90
63260;DHT22;49390;51.380;0.098;2023-08-17T00:43:15;18.20;99.90
63260;DHT22;49390;51.380;0.098;2023-08-17T00:45:44;18.20;99.90
63260;DHT22;49390;51.380;0.098;2023-08-17T00:48:16;18.20;99.90
63260;DHT22;49390;51.380;0.098;2023-08-17T00:50:49;18.20;99.90
63260;DHT22;49390;51.380;0.098;2023-08-17T00:53:19;18.10;99.90
63260;DHT22;49390;51.380;0.098;2023-08-17T00:55:51;18.10;99.90
63260;DHT22;49390;51.380;0.098;2023-08-17T00:58:22;18.00;99.90
63260;DHT22;49390;51.380;0.098;2023-08-17T01:00:50;18.00;99.90
63260;DHT22;49390;51.380;0.098;2023-08-17T01:03:22;18.00;99.90
63260;DHT22;49390;51.380;0.098;2023-08-17T01:05:51;18.00;99.90
63260;DHT22;49390;51.380;0.098;2023-08-17T01:08:19;18.00;99.90
63260;DHT22;49390;51.380;0.098;2023-08-17T01:16:05;18.00;99.90
63260;DHT22;49390;51.380;0.098;2023-08-17T01:18:40;18.00;99.90
63260;DHT22;49390;51.380;0.098;2023-08-17T01:21:10;18.00;99.90
63260;DHT22;49390;51.380;0.098;2023-08-17T01:23:40;17.90;99.90
63260;DHT22;49390;51.380;0.098;2023-08-17T01:26:08;17.90;99.90
63260;DHT22;49390;51.380;0.098;2023-08-17T01:28:36;17.80;99.90
63260;DHT22;49390;51.380;0.098;2023-08-17T01:31:11;17.80;99.90
63260;DHT22;49390;51.380;0.098;2023-08-17T01:33:52;17.80;99.90
63260;DHT22;49390;51.380;0.098;2023-08-17T01:36:39;17.80;99.90
63260;DHT22;49390;51.380;0.098;2023-08-17T01:39:13;17.70;99.90
63260;DHT22;49390;51.380;0.098;2023-08-17T01:41:44;17.80;99.90
63260;DHT22;49390;51.380;0.098;2023-08-17T01:44:13;17.80;99.90
63260;DHT22;49390;51.380;0.098;2023-08-17T01:46:41;17.80;99.90
63260;DHT22;49390;51.380;0.098;2023-08-17T01:49:10;17.70;99.90
63260;DHT22;49390;51.380;0.098;2023-08-17T01:51:38;17.70;99.90
63260;DHT22;49390;51.380;0.098;2023-08-17T01:54:06;17.70;99.90
63260;DHT22;49390;51.380;0.098;2023-08-17T01:56:34;17.70;99.90
63260;DHT22;49390;51.380;0.098;2023-08-17T01:59:02;17.70;99.90
63260;DHT22;49390;51.380;0.098;2023-08-17T02:01:30;17.80;99.90
63260;DHT22;49390;51.380;0.098;2023-08-17T02:03:58;17.80;99.90
63260;DHT22;49390;51.380;0.098;2023-08-17T02:06:31;17.70;99.90
63260;DHT22;49390;51.380;0.098;2023-08-17T02:08:59;17.80;99.90
63260;DHT22;49390;51.380;0.098;2023-08-17T02:11:27;17.80;99.90
63260;DHT22;49390;51.380;0.098;2023-08-17T02:13:55;17.70;99.90
63260;DHT22;49390;51.380;0.098;2023-08-17T02:16:23;17.80;99.90
63260;DHT22;49390;51.380;0.098;2023-08-17T02:18:51;17.80;99.90
63260;DHT22;49390;51.380;0.098;2023-08-17T02:21:19;17.80;99.90
63260;DHT22;49390;51.380;0.098;2023-08-17T02:23:47;17.80;99.90
63260;DHT22;49390;51.380;0.098;2023-08-17T02:26:23;17.80;99.90
63260;DHT22;49390;51.380;0.098;2023-08-17T02:28:51;17.80;99.90
63260;DHT22;49390;51.380;0.098;2023-08-17T02:31:19;17.80;99.90
63260;DHT22;49390;51.380;0.098;2023-08-17T02:33:47;17.80;99.90
63260;DHT22;49390;51.380;0.098;2023-08-17T02:36:15;17.80;99.90
63260;DHT22;49390;51.380;0.098;2023-08-17T02:38:43;17.80;99.90
63260;DHT22;49390;51.380;0.098;2023-08-17T02:41:11;17.80;99.90
63260;DHT22;49390;51.380;0.098;2023-08-17T02:43:39;17.70;99.90
63260;DHT22;49390;51.380;0.098;2023-08-17T02:46:07;17.80;99.90
63260;DHT22;49390;51.380;0.098;2023-08-17T02:48:37;17.80;99.90
63260;DHT22;49390;51.380;0.098;2023-08-17T02:51:05;17.70;99.90
63260;DHT22;49390;51.380;0.098;2023-08-17T02:53:34;17.80;99.90
63260;DHT22;49390;51.380;0.098;2023-08-17T02:56:02;17.80;99.90
63260;DHT22;49390;51.380;0.098;2023-08-17T02:58:30;17.80;99.90
63260;DHT22;49390;51.380;0.098;2023-08-17T03:00:59;17.80;99.90
63260;DHT22;49390;51.380;0.098;2023-08-17T03:03:30;17.80;99.90
63260;DHT22;49390;51.380;0.098;2023-08-17T03:07:10;17.80;99.90
63260;DHT22;49390;51.380;0.098;2023-08-17T03:09:41;17.80;99.90
63260;DHT22;49390;51.380;0.098;2023-08-17T03:12:09;17.80;99.90
63260;DHT22;49390;51.380;0.098;2023-08-17T03:14:37;17.90;99.90
63260;DHT22;49390;51.380;0.098;2023-08-17T03:17:05;17.90;99.90
63260;DHT22;49390;51.380;0.098;2023-08-17T03:19:34;17.90;99.90
63260;DHT22;49390;51.380;0.098;2023-08-17T03:22:02;17.90;99.90
63260;DHT22;49390;51.380;0.098;2023-08-17T03:24:31;17.90;99.90
63260;DHT22;49390;51.380;0.098;2023-08-17T03:27:00;17.90;99.90
63260;DHT22;49390;51.380;0.098;2023-08-17T03:29:28;17.90;99.90
63260;DHT22;49390;51.380;0.098;2023-08-17T03:31:56;18.00;99.90
63260;DHT22;49390;51.380;0.098;2023-08-17T03:34:25;18.00;99.90
63260;DHT22;49390;51.380;0.098;2023-08-17T03:36:53;18.00;99.90
63260;DHT22;49390;51.380;0.098;2023-08-17T03:39:21;18.00;99.90
63260;DHT22;49390;51.380;0.098;2023-08-17T03:41:49;18.00;99.90
63260;DHT22;49390;51.380;0.098;2023-08-17T03:44:17;18.00;99.90
63260;DHT22;49390;51.380;0.098;2023-08-17T03:46:45;18.00;99.90
63260;DHT22;49390;51.380;0.098;2023-08-17T03:49:13;18.00;99.90
63260;DHT22;49390;51.380;0.098;2023-08-17T03:51:42;18.00;99.90
63260;DHT22;49390;51.380;0.098;2023-08-17T03:54:12;18.00;99.90
63260;DHT22;49390;51.380;0.098;2023-08-17T03:56:41;18.00;99.90
63260;DHT22;49390;51.380;0.098;2023-08-17T03:59:09;18.00;99.90
63260;DHT22;49390;51.380;0.098;2023-08-17T04:01:37;18.00;99.90
63260;DHT22;49390;51.380;0.098;2023-08-17T04:04:05;18.00;99.90
63260;DHT22;49390;51.380;0.098;2023-08-17T04:06:34;18.00;99.90
63260;DHT22;49390;51.380;0.098;2023-08-17T04:09:03;18.00;99.90
63260;DHT22;49390;51.380;0.098;2023-08-17T04:11:35;18.00;99.90
63260;DHT22;49390;51.380;0.098;2023-08-17T04:14:04;18.10;99.90
63260;DHT22;49390;51.380;0.098;2023-08-17T04:16:33;18.10;99.90
63260;DHT22;49390;51.380;0.098;2023-08-17T04:19:03;18.10;99.90
63260;DHT22;49390;51.380;0.098;2023-08-17T04:21:31;18.00;99.90
63260;DHT22;49390;51.380;0.098;2023-08-17T04:23:59;18.00;99.90
63260;DHT22;49390;51.380;0.098;2023-08-17T04:26:27;18.00;99.90
63260;DHT22;49390;51.380;0.098;2023-08-17T04:28:56;18.00;99.90
63260;DHT22;49390;51.380;0.098;2023-08-17T04:31:25;17.90;99.90
63260;DHT22;49390;51.380;0.098;2023-08-17T04:33:59;17.90;99.90
63260;DHT22;49390;51.380;0.098;2023-08-17T04:36:28;18.00;99.90
63260;DHT22;49390;51.380;0.098;2023-08-17T04:38:56;18.00;99.90
63260;DHT22;49390;51.380;0.098;2023-08-17T04:41:24;18.00;99.90
63260;DHT22;49390;51.380;0.098;2023-08-17T04:43:54;18.00;99.90
63260;DHT22;49390;51.380;0.098;2023-08-17T04:46:22;18.00;99.90
63260;DHT22;49390;51.380;0.098;2023-08-17T04:48:50;18.00;99.90
63260;DHT22;49390;51.380;0.098;2023-08-17T04:51:18;18.00;99.90
63260;DHT22;49390;51.380;0.098;2023-08-17T04:53:46;18.10;99.90
63260;DHT22;49390;51.380;0.098;2023-08-17T04:56:15;18.10;99.90
63260;DHT22;49390;51.380;0.098;2023-08-17T04:58:43;18.10;99.90
63260;DHT22;49390;51.380;0.098;2023-08-17T05:01:13;18.00;99.90
63260;DHT22;49390;51.380;0.098;2023-08-17T05:03:41;18.10;99.90
63260;DHT22;49390;51.380;0.098;2023-08-17T05:06:10;18.10;99.90
63260;DHT22;49390;51.380;0.098;2023-08-17T05:08:39;18.10;99.90
63260;DHT22;49390;51.380;0.098;2023-08-17T05:11:07;18.10;99.90
63260;DHT22;49390;51.380;0.098;2023-08-17T05:13:36;18.10;99.90
63260;DHT22;49390;51.380;0.098;2023-08-17T05:16:05;18.10;99.90
63260;DHT22;49390;51.380;0.098;2023-08-17T05:18:35;18.10;99.90
63260;DHT22;49390;51.380;0.098;2023-08-17T05:21:03;18.10;99.90
63260;DHT22;49390;51.380;0.098;2023-08-17T05:23:32;18.10;99.90
63260;DHT22;49390;51.380;0.098;2023-08-17T05:26:00;18.10;99.90
63260;DHT22;49390;51.380;0.098;2023-08-17T05:28:31;18.10;99.90
63260;DHT22;49390;51.380;0.098;2023-08-17T05:31:06;18.20;99.90
63260;DHT22;49390;51.380;0.098;2023-08-17T05:33:37;18.10;99.90
63260;DHT22;49390;51.380;0.098;2023-08-17T05:36:08;18.10;99.90
63260;DHT22;49390;51.380;0.098;2023-08-17T05:38:37;18.20;99.90
63260;DHT22;49390;51.380;0.098;2023-08-17T05:41:05;18.20;99.90
63260;DHT22;49390;51.380;0.098;2023-08-17T05:43:34;18.10;99.90
63260;DHT22;49390;51.380;0.098;2023-08-17T05:46:01;18.20;99.90
63260;DHT22;49390;51.380;0.098;2023-08-17T05:48:32;18.20;99.90
63260;DHT22;49390;51.380;0.098;2023-08-17T05:51:00;18.20;99.90
63260;DHT22;49390;51.380;0.098;2023-08-17T05:53:28;18.20;99.90
63260;DHT22;49390;51.380;0.098;2023-08-17T05:55:56;18.20;99.90
63260;DHT22;49390;51.380;0.098;2023-08-17T05:58:24;18.20;99.90
63260;DHT22;49390;51.380;0.098;2023-08-17T06:00:52;18.20;99.90
63260;DHT22;49390;51.380;0.098;2023-08-17T06:03:20;18.30;99.90
63260;DHT22;49390;51.380;0.098;2023-08-17T06:05:48;18.30;99.90
63260;DHT22;49390;51.380;0.098;2023-08-17T06:08:20;18.30;99.90
63260;DHT22;49390;51.380;0.098;2023-08-17T06:10:47;18.30;99.90
63260;DHT22;49390;51.380;0.098;2023-08-17T06:13:16;18.30;99.90
63260;DHT22;49390;51.380;0.098;2023-08-17T06:15:44;18.30;99.90
63260;DHT22;49390;51.380;0.098;2023-08-17T06:18:15;18.30;99.90
63260;DHT22;49390;51.380;0.098;2023-08-17T06:20:44;18.30;99.90
63260;DHT22;49390;51.380;0.098;2023-08-17T06:23:14;18.40;99.90
63260;DHT22;49390;51.380;0.098;2023-08-17T06:25:42;18.40;99.90
63260;DHT22;49390;51.380;0.098;2023-08-17T06:28:10;18.40;99.90
63260;DHT22;49390;51.380;0.098;2023-08-17T06:30:38;18.50;99.90
63260;DHT22;49390;51.380;0.098;2023-08-17T06:33:06;18.50;99.90
63260;DHT22;49390;51.380;0.098;2023-08-17T06:35:34;18.50;99.90
63260;DHT22;49390;51.380;0.098;2023-08-17T06:38:03;18.60;99.90
63260;DHT22;49390;51.380;0.098;2023-08-17T06:40:31;18.60;99.90
63260;DHT22;49390;51.380;0.098;2023-08-17T06:42:59;18.60;99.90
63260;DHT22;49390;51.380;0.098;2023-08-17T06:45:27;18.80;99.90
63260;DHT22;49390;51.380;0.098;2023-08-17T06:47:56;18.70;99.90
63260;DHT22;49390;51.380;0.098;2023-08-17T06:50:24;18.80;99.90
63260;DHT22;49390;51.380;0.098;2023-08-17T06:52:54;18.80;99.90
63260;DHT22;49390;51.380;0.098;2023-08-17T06:55:22;18.90;99.90
63260;DHT22;49390;51.380;0.098;2023-08-17T06:57:50;18.90;99.90
63260;DHT22;49390;51.380;0.098;2023-08-17T07:00:19;19.00;99.90
63260;DHT22;49390;51.380;0.098;2023-08-17T07:02:49;19.10;99.90
63260;DHT22;49390;51.380;0.098;2023-08-17T07:05:22;19.20;99.90
63260;DHT22;49390;51.380;0.098;2023-08-17T07:07:50;19.20;99.90
63260;DHT22;49390;51.380;0.098;2023-08-17T07:10:18;19.30;99.90
63260;DHT22;49390;51.380;0.098;2023-08-17T07:12:49;19.40;99.90
63260;DHT22;49390;51.380;0.098;2023-08-17T07:15:17;19.40;99.90
63260;DHT22;49390;51.380;0.098;2023-08-17T07:17:48;19.40;99.90
63260;DHT22;49390;51.380;0.098;2023-08-17T07:20:16;19.50;99.90
63260;DHT22;49390;51.380;0.098;2023-08-17T07:22:44;19.60;99.90
63260;DHT22;49390;51.380;0.098;2023-08-17T07:25:12;19.70;99.90
63260;DHT22;49390;51.380;0.098;2023-08-17T07:27:41;20.00;99.90
63260;DHT22;49390;51.380;0.098;2023-08-17T07:30:10;20.20;99.90
63260;DHT22;49390;51.380;0.098;2023-08-17T07:32:38;20.50;99.90
63260;DHT22;49390;51.380;0.098;2023-08-17T07:35:07;20.70;99.90
63260;DHT22;49390;51.380;0.098;2023-08-17T07:37:35;21.00;99.90
63260;DHT22;49390;51.380;0.098;2023-08-17T07:40:04;21.10;99.90
63260;DHT22;49390;51.380;0.098;2023-08-17T07:42:32;21.10;99.90
63260;DHT22;49390;51.380;0.098;2023-08-17T07:45:02;21.20;99.90
63260;DHT22;49390;51.380;0.098;2023-08-17T07:47:36;21.20;99.90
63260;DHT22;49390;51.380;0.098;2023-08-17T07:50:06;21.20;99.90
63260;DHT22;49390;51.380;0.098;2023-08-17T07:52:34;21.10;99.90
63260;DHT22;49390;51.380;0.098;2023-08-17T07:55:03;21.10;99.90
63260;DHT22;49390;51.380;0.098;2023-08-17T07:57:31;21.10;99.90
63260;DHT22;49390;51.380;0.098;2023-08-17T08:00:00;21.20;99.90
63260;DHT22;49390;51.380;0.098;2023-08-17T08:02:34;21.20;99.90
63260;DHT22;49390;51.380;0.098;2023-08-17T08:05:04;21.30;99.90
63260;DHT22;49390;51.380;0.098;2023-08-17T08:07:34;21.30;99.90
63260;DHT22;49390;51.380;0.098;2023-08-17T08:10:02;21.30;99.90
63260;DHT22;49390;51.380;0.098;2023-08-17T08:12:30;21.20;99.90
63260;DHT22;49390;51.380;0.098;2023-08-17T08:15:00;21.20;99.90
63260;DHT22;49390;51.380;0.098;2023-08-17T08:17:30;21.20;99.90
63260;DHT22;49390;51.380;0.098;2023-08-17T08:19:59;21.10;99.90
63260;DHT22;49390;51.380;0.098;2023-08-17T08:22:27;21.10;99.90
63260;DHT22;49390;51.380;0.098;2023-08-17T08:24:57;21.00;99.90
63260;DHT22;49390;51.380;0.098;2023-08-17T08:27:25;21.00;99.90
63260;DHT22;49390;51.380;0.098;2023-08-17T08:29:53;21.00;99.90
63260;DHT22;49390;51.380;0.098;2023-08-17T08:32:21;21.10;99.90
63260;DHT22;49390;51.380;0.098;2023-08-17T08:34:49;21.20;99.90
63260;DHT22;49390;51.380;0.098;2023-08-17T08:37:18;21.20;99.90
63260;DHT22;49390;51.380;0.098;2023-08-17T08:42:19;21.20;99.90
63260;DHT22;49390;51.380;0.098;2023-08-17T08:44:49;21.30;99.90
63260;DHT22;49390;51.380;0.098;2023-08-17T08:47:18;21.60;99.90
63260;DHT22;49390;51.380;0.098;2023-08-17T08:50:03;21.90;99.90
63260;DHT22;49390;51.380;0.098;2023-08-17T08:52:41;22.20;99.90
63260;DHT22;49390;51.380;0.098;2023-08-17T08:55:21;22.40;99.90
63260;DHT22;49390;51.380;0.098;2023-08-17T08:57:52;22.80;99.90
63260;DHT22;49390;51.380;0.098;2023-08-17T09:00:22;23.10;99.90
63260;DHT22;49390;51.380;0.098;2023-08-17T09:02:52;23.00;99.90
63260;DHT22;49390;51.380;0.098;2023-08-17T09:05:22;22.90;99.90
63260;DHT22;49390;51.380;0.098;2023-08-17T09:07:50;22.70;99.90
63260;DHT22;49390;51.380;0.098;2023-08-17T09:10:20;22.60;99.90
63260;DHT22;49390;51.380;0.098;2023-08-17T09:12:48;22.70;99.90
63260;DHT22;49390;51.380;0.098;2023-08-17T09:15:17;22.80;99.90
63260;DHT22;49390;51.380;0.098;2023-08-17T09:17:45;23.00;99.90
63260;DHT22;49390;51.380;0.098;2023-08-17T09:20:53;23.20;99.90
63260;DHT22;49390;51.380;0.098;2023-08-17T09:23:22;23.20;99.90
63260;DHT22;49390;51.380;0.098;2023-08-17T09:25:53;23.10;99.90
63260;DHT22;49390;51.380;0.098;2023-08-17T09:28:25;23.10;99.90
63260;DHT22;49390;51.380;0.098;2023-08-17T09:31:01;22.90;99.90
63260;DHT22;49390;51.380;0.098;2023-08-17T09:33:32;22.80;99.90
63260;DHT22;49390;51.380;0.098;2023-08-17T09:36:01;22.70;99.90
63260;DHT22;49390;51.380;0.098;2023-08-17T09:38:29;22.70;99.90
63260;DHT22;49390;51.380;0.098;2023-08-17T09:40:57;22.80;99.90
63260;DHT22;49390;51.380;0.098;2023-08-17T09:43:29;22.80;99.90
63260;DHT22;49390;51.380;0.098;2023-08-17T09:46:01;22.80;99.90
63260;DHT22;49390;51.380;0.098;2023-08-17T09:48:31;22.80;99.90
63260;DHT22;49390;51.380;0.098;2023-08-17T09:51:06;22.90;99.90
63260;DHT22;49390;51.380;0.098;2023-08-17T09:53:37;23.00;99.90
63260;DHT22;49390;51.380;0.098;2023-08-17T09:56:06;22.90;99.90
63260;DHT22;49390;51.380;0.098;2023-08-17T09:58:44;22.90;99.90
63260;DHT22;49390;51.380;0.098;2023-08-17T10:01:13;22.90;99.90
63260;DHT22;49390;51.380;0.098;2023-08-17T10:03:45;22.80;99.90
63260;DHT22;49390;51.380;0.098;2023-08-17T10:06:19;22.90;99.90
63260;DHT22;49390;51.380;0.098;2023-08-17T10:08:54;22.90;99.90
63260;DHT22;49390;51.380;0.098;2023-08-17T10:11:27;22.90;99.10
63260;DHT22;49390;51.380;0.098;2023-08-17T10:14:01;22.80;98.00
63260;DHT22;49390;51.380;0.098;2023-08-17T10:16:45;22.70;98.80
63260;DHT22;49390;51.380;0.098;2023-08-17T10:19:25;22.70;99.20
63260;DHT22;49390;51.380;0.098;2023-08-17T10:24:55;22.90;98.40
63260;DHT22;49390;51.380;0.098;2023-08-17T10:27:26;22.90;98.40
63260;DHT22;49390;51.380;0.098;2023-08-17T10:29:58;22.70;99.20
63260;DHT22;49390;51.380;0.098;2023-08-17T10:34:21;22.50;99.90
63260;DHT22;49390;51.380;0.098;2023-08-17T10:36:49;22.50;98.90
63260;DHT22;49390;51.380;0.098;2023-08-17T10:39:22;22.50;98.70
63260;DHT22;49390;51.380;0.098;2023-08-17T10:41:58;22.60;97.50
63260;DHT22;49390;51.380;0.098;2023-08-17T10:52:28;22.70;97.70
63260;DHT22;49390;51.380;0.098;2023-08-17T10:54:59;22.70;97.60
63260;DHT22;49390;51.380;0.098;2023-08-17T11:00:25;22.90;96.30
63260;DHT22;49390;51.380;0.098;2023-08-17T11:03:10;22.90;94.80
63260;DHT22;49390;51.380;0.098;2023-08-17T11:08:39;23.10;94.40
63260;DHT22;49390;51.380;0.098;2023-08-17T11:11:13;23.20;93.20
63260;DHT22;49390;51.380;0.098;2023-08-17T11:13:45;23.40;92.20
63260;DHT22;49390;51.380;0.098;2023-08-17T11:16:14;23.60;91.00
63260;DHT22;49390;51.380;0.098;2023-08-17T11:18:46;23.60;90.50
63260;DHT22;49390;51.380;0.098;2023-08-17T11:21:21;23.60;90.20
63260;DHT22;49390;51.380;0.098;2023-08-17T11:23:49;23.40;90.30
63260;DHT22;49390;51.380;0.098;2023-08-17T11:26:19;23.30;91.40
63260;DHT22;49390;51.380;0.098;2023-08-17T11:28:47;23.20;91.00
63260;DHT22;49390;51.380;0.098;2023-08-17T11:31:15;23.20;90.90
63260;DHT22;49390;51.380;0.098;2023-08-17T11:33:47;23.10;90.70
63260;DHT22;49390;51.380;0.098;2023-08-17T11:36:15;23.10;91.00
63260;DHT22;49390;51.380;0.098;2023-08-17T11:38:44;23.20;89.60
63260;DHT22;49390;51.380;0.098;2023-08-17T11:41:12;23.10;89.80
63260;DHT22;49390;51.380;0.098;2023-08-17T11:43:46;23.00;89.80
63260;DHT22;49390;51.380;0.098;2023-08-17T11:46:15;23.00;90.30
63260;DHT22;49390;51.380;0.098;2023-08-17T11:48:43;23.10;90.00
63260;DHT22;49390;51.380;0.098;2023-08-17T11:51:14;23.10;89.80
63260;DHT22;49390;51.380;0.098;2023-08-17T11:53:43;23.10;88.20
63260;DHT22;49390;51.380;0.098;2023-08-17T11:56:18;23.10;87.80
63260;DHT22;49390;51.380;0.098;2023-08-17T11:58:47;23.20;86.60
63260;DHT22;49390;51.380;0.098;2023-08-17T12:01:17;23.20;85.50
63260;DHT22;49390;51.380;0.098;2023-08-17T12:03:49;23.10;84.60
63260;DHT22;49390;51.380;0.098;2023-08-17T12:06:17;23.10;83.90
63260;DHT22;49390;51.380;0.098;2023-08-17T12:08:46;23.20;84.60
63260;DHT22;49390;51.380;0.098;2023-08-17T12:11:19;23.40;85.00
63260;DHT22;49390;51.380;0.098;2023-08-17T12:13:51;23.40;84.60
63260;DHT22;49390;51.380;0.098;2023-08-17T12:16:20;23.30;82.80
63260;DHT22;49390;51.380;0.098;2023-08-17T12:18:50;23.10;83.70
63260;DHT22;49390;51.380;0.098;2023-08-17T12:21:20;23.20;83.80
63260;DHT22;49390;51.380;0.098;2023-08-17T12:23:50;23.30;83.60
63260;DHT22;49390;51.380;0.098;2023-08-17T12:26:19;23.40;82.50
63260;DHT22;49390;51.380;0.098;2023-08-17T12:28:49;23.50;82.30
63260;DHT22;49390;51.380;0.098;2023-08-17T12:31:35;23.70;80.70
63260;DHT22;49390;51.380;0.098;2023-08-17T12:34:04;23.70;79.70
63260;DHT22;49390;51.380;0.098;2023-08-17T12:36:34;23.70;78.10
63260;DHT22;49390;51.380;0.098;2023-08-17T12:39:12;23.70;77.90
63260;DHT22;49390;51.380;0.098;2023-08-17T12:41:40;23.60;79.00
63260;DHT22;49390;51.380;0.098;2023-08-17T12:44:09;23.70;77.70
63260;DHT22;49390;51.380;0.098;2023-08-17T12:46:44;23.90;76.80
63260;DHT22;49390;51.380;0.098;2023-08-17T12:49:16;24.00;76.60
63260;DHT22;49390;51.380;0.098;2023-08-17T12:51:44;24.00;76.30
63260;DHT22;49390;51.380;0.098;2023-08-17T12:54:13;24.10;74.70
63260;DHT22;49390;51.380;0.098;2023-08-17T12:56:41;24.00;75.60
63260;DHT22;49390;51.380;0.098;2023-08-17T12:59:10;24.00;74.30
63260;DHT22;49390;51.380;0.098;2023-08-17T13:04:02;23.90;73.60
63260;DHT22;49390;51.380;0.098;2023-08-17T13:06:31;24.00;74.40
63260;DHT22;49390;51.380;0.098;2023-08-17T13:09:10;24.20;74.00
63260;DHT22;49390;51.380;0.098;2023-08-17T13:11:39;24.20;73.10
63260;DHT22;49390;51.380;0.098;2023-08-17T13:14:09;24.30;73.10
63260;DHT22;49390;51.380;0.098;2023-08-17T13:16:38;24.30;72.00
63260;DHT22;49390;51.380;0.098;2023-08-17T13:19:06;24.30;71.50
63260;DHT22;49390;51.380;0.098;2023-08-17T13:21:34;24.20;71.60
63260;DHT22;49390;51.380;0.098;2023-08-17T13:24:02;24.10;72.10
63260;DHT22;49390;51.380;0.098;2023-08-17T13:26:32;24.00;73.00
63260;DHT22;49390;51.380;0.098;2023-08-17T13:28:59;24.10;72.50
63260;DHT22;49390;51.380;0.098;2023-08-17T13:31:30;24.10;71.40
63260;DHT22;49390;51.380;0.098;2023-08-17T13:33:58;24.10;71.80
63260;DHT22;49390;51.380;0.098;2023-08-17T13:36:32;24.20;71.80
63260;DHT22;49390;51.380;0.098;2023-08-17T13:39:00;24.30;70.50
63260;DHT22;49390;51.380;0.098;2023-08-17T13:41:29;24.30;70.90
63260;DHT22;49390;51.380;0.098;2023-08-17T13:43:57;24.30;70.90
63260;DHT22;49390;51.380;0.098;2023-08-17T13:46:28;24.40;70.70
63260;DHT22;49390;51.380;0.098;2023-08-17T13:48:56;24.50;70.40
63260;DHT22;49390;51.380;0.098;2023-08-17T13:51:25;24.50;69.80
63260;DHT22;49390;51.380;0.098;2023-08-17T13:53:53;24.40;69.90
63260;DHT22;49390;51.380;0.098;2023-08-17T13:56:24;24.50;69.90
63260;DHT22;49390;51.380;0.098;2023-08-17T13:58:53;24.40;69.30
63260;DHT22;49390;51.380;0.098;2023-08-17T14:01:22;24.30;70.10
63260;DHT22;49390;51.380;0.098;2023-08-17T14:03:50;24.20;70.00
63260;DHT22;49390;51.380;0.098;2023-08-17T14:06:21;24.10;70.20
63260;DHT22;49390;51.380;0.098;2023-08-17T14:08:49;24.00;70.30
63260;DHT22;49390;51.380;0.098;2023-08-17T14:11:17;24.00;70.80
63260;DHT22;49390;51.380;0.098;2023-08-17T14:13:45;24.00;70.30
63260;DHT22;49390;51.380;0.098;2023-08-17T14:16:16;24.00;69.70
63260;DHT22;49390;51.380;0.098;2023-08-17T14:20:11;23.90;68.40
63260;DHT22;49390;51.380;0.098;2023-08-17T14:22:41;23.90;68.70
63260;DHT22;49390;51.380;0.098;2023-08-17T14:25:09;24.00;68.20
63260;DHT22;49390;51.380;0.098;2023-08-17T14:27:37;24.00;67.30
63260;DHT22;49390;51.380;0.098;2023-08-17T14:30:05;24.10;67.20
63260;DHT22;49390;51.380;0.098;2023-08-17T14:32:34;24.10;66.70
63260;DHT22;49390;51.380;0.098;2023-08-17T14:35:05;24.00;66.20
63260;DHT22;49390;51.380;0.098;2023-08-17T14:37:39;24.00;64.50
63260;DHT22;49390;51.380;0.098;2023-08-17T14:40:10;24.00;64.60
63260;DHT22;49390;51.380;0.098;2023-08-17T14:42:40;24.00;63.80
63260;DHT22;49390;51.380;0.098;2023-08-17T14:45:08;23.90;62.10
63260;DHT22;49390;51.380;0.098;2023-08-17T14:47:37;23.90;61.60
63260;DHT22;49390;51.380;0.098;2023-08-17T14:50:06;23.70;61.90
63260;DHT22;49390;51.380;0.098;2023-08-17T14:52:34;23.80;60.90
63260;DHT22;49390;51.380;0.098;2023-08-17T14:55:05;23.70;61.30
63260;DHT22;49390;51.380;0.098;2023-08-17T14:57:33;23.60;61.30
63260;DHT22;49390;51.380;0.098;2023-08-17T15:00:02;23.60;60.90
63260;DHT22;49390;51.380;0.098;2023-08-17T15:02:33;23.60;61.60
63260;DHT22;49390;51.380;0.098;2023-08-17T15:05:01;23.70;63.00
63260;DHT22;49390;51.380;0.098;2023-08-17T15:07:29;23.70;63.10
63260;DHT22;49390;51.380;0.098;2023-08-17T15:10:03;23.70;63.10
63260;DHT22;49390;51.380;0.098;2023-08-17T15:12:31;23.70;63.20
63260;DHT22;49390;51.380;0.098;2023-08-17T15:14:59;23.70;63.20
63260;DHT22;49390;51.380;0.098;2023-08-17T15:17:28;23.70;63.90
63260;DHT22;49390;51.380;0.098;2023-08-17T15:20:02;23.70;64.60
63260;DHT22;49390;51.380;0.098;2023-08-17T15:22:31;23.70;65.40
63260;DHT22;49390;51.380;0.098;2023-08-17T15:25:00;23.70;65.70
63260;DHT22;49390;51.380;0.098;2023-08-17T15:27:28;23.70;66.00
63260;DHT22;49390;51.380;0.098;2023-08-17T15:29:56;23.70;66.50
63260;DHT22;49390;51.380;0.098;2023-08-17T15:32:25;23.70;65.30
63260;DHT22;49390;51.380;0.098;2023-08-17T15:34:53;23.70;65.80
63260;DHT22;49390;51.380;0.098;2023-08-17T15:37:24;23.60;65.00
63260;DHT22;49390;51.380;0.098;2023-08-17T15:39:52;23.60;64.90
63260;DHT22;49390;51.380;0.098;2023-08-17T15:42:20;23.60;65.20
63260;DHT22;49390;51.380;0.098;2023-08-17T15:44:50;23.50;66.10
63260;DHT22;49390;51.380;0.098;2023-08-17T15:47:19;23.50;66.30
63260;DHT22;49390;51.380;0.098;2023-08-17T15:49:47;23.50;66.10
63260;DHT22;49390;51.380;0.098;2023-08-17T15:52:16;23.50;66.00
63260;DHT22;49390;51.380;0.098;2023-08-17T15:54:44;23.50;65.90
63260;DHT22;49390;51.380;0.098;2023-08-17T15:57:12;23.50;66.10
63260;DHT22;49390;51.380;0.098;2023-08-17T15:59:40;23.50;65.70
63260;DHT22;49390;51.380;0.098;2023-08-17T16:02:08;23.50;65.20
63260;DHT22;49390;51.380;0.098;2023-08-17T16:04:39;23.40;64.60
63260;DHT22;49390;51.380;0.098;2023-08-17T16:07:07;23.40;65.80
63260;DHT22;49390;51.380;0.098;2023-08-17T16:09:35;23.20;65.40
63260;DHT22;49390;51.380;0.098;2023-08-17T16:12:03;23.10;66.30
63260;DHT22;49390;51.380;0.098;2023-08-17T16:14:32;23.00;67.10
63260;DHT22;49390;51.380;0.098;2023-08-17T16:17:01;23.00;67.80